KLRD/LRD METAR and TAF weather

Enter ICAO airport designator
Station Type Date Time Source
KLRD METAR 2021/05/15 23:56 UTC NOAA

KLRD 152356Z 12009G18KT 10SM CLR 31/17 A2988 RMK AO2 SLP115 60000 T03060167 10311 20272 55017


Station Type Date Time Source
KLRD Decoded METAR 2021/05/15 23:56 UTC NOAA

Laredo, Laredo International Airport, TX, United States (KLRD) 27-32-37N 099-27-41W
May 15, 2021 - 07:56 PM EDT / 2021.05.15 2356 UTC
Wind: from the ESE (120 degrees) at 10 MPH (9 KT) gusting to 21 MPH (18 KT):0
Visibility: 10 mile(s):0
Sky conditions: clear
Temperature: 87.1 F (30.6 C)
Dew Point: 62.1 F (16.7 C)
Relative Humidity: 43%
Pressure (altimeter): 29.88 in. Hg (1011 hPa)
Pressure tendency: 0.05 inches (1.7 hPa) lower than three hours ago
ob: KLRD 152356Z 12009G18KT 10SM CLR 31/17 A2988 RMK AO2 SLP115 60000 T03060167 10311 20272 55017
cycle: 0

Station Type Date Time Source
KLRD TAF 2021/05/15 21:42 UTC NOAA

TAF
AMD KLRD 152040Z 1521/1618 14015G25KT P6SM VCSH BKN035
FM152200 13016G24KT P6SM BKN035
FM160400 13010KT P6SM VCTS OVC020CB
FM160600 12010KT 4SM TSRA OVC020CB
FM161000 12010KT P6SM BKN020
FM161500 14012G22KT P6SM BKN030

Example: see airport list